createdAt,value
2022-12-01T00:00:27.318Z,75.32
2022-12-01T00:02:55.229Z,67.50
2022-12-01T00:05:23.054Z,71.90
2022-12-01T00:07:50.830Z,73.32
2022-12-01T00:10:26.606Z,74.75
2022-12-01T00:12:56.619Z,70.40
2022-12-01T00:15:27.329Z,69.22
2022-12-01T00:17:55.044Z,74.03
2022-12-01T00:20:22.777Z,79.60
2022-12-01T00:22:51.056Z,80.28
2022-12-01T00:25:20.527Z,78.40
2022-12-01T00:27:49.821Z,75.60
2022-12-01T00:30:21.220Z,80.45
2022-12-01T00:32:49.777Z,82.25
2022-12-01T00:35:18.219Z,74.15
2022-12-01T00:37:45.971Z,81.40
2022-12-01T00:40:14.814Z,73.88
2022-12-01T00:42:42.536Z,75.75
2022-12-01T00:45:12.071Z,82.70
2022-12-01T00:47:41.178Z,80.85
2022-12-01T00:50:09.492Z,77.75
2022-12-01T00:52:37.219Z,76.47
2022-12-01T00:55:05.561Z,79.40
2022-12-01T00:57:33.278Z,74.10
2022-12-01T01:00:00.945Z,80.10
2022-12-01T01:02:28.759Z,79.45
2022-12-01T01:05:00.926Z,76.22
2022-12-01T01:07:31.072Z,73.82
2022-12-01T01:09:58.796Z,74.95
2022-12-01T01:12:26.531Z,74.38
2022-12-01T01:14:54.245Z,77.72
2022-12-01T01:17:21.979Z,76.75
2022-12-01T01:19:49.890Z,77.68
2022-12-01T01:22:21.160Z,78.07
2022-12-01T01:24:48.839Z,78.18
2022-12-01T01:27:16.551Z,77.80
2022-12-01T01:29:44.234Z,77.28
2022-12-01T01:32:11.985Z,76.20
2022-12-01T01:34:39.730Z,84.07
2022-12-01T01:37:07.446Z,77.05
2022-12-01T01:39:38.982Z,74.10
2022-12-01T01:42:06.689Z,70.75
2022-12-01T01:44:52.337Z,70.45
2022-12-01T01:47:25.223Z,63.88
2022-12-01T01:49:53.905Z,64.32
2022-12-01T01:52:22.500Z,70.20
2022-12-01T01:54:55.091Z,66.22
2022-12-01T01:57:27.558Z,64.95
2022-12-01T02:00:00.132Z,66.03
2022-12-01T02:02:28.027Z,65.57
2022-12-01T02:05:00.218Z,68.10
2022-12-01T02:07:30.075Z,68.85
2022-12-01T02:09:59.613Z,70.20
2022-12-01T02:12:47.353Z,70.38
2022-12-01T02:15:27.343Z,65.75
2022-12-01T02:18:08.092Z,72.18
2022-12-01T02:20:55.565Z,66.95
2022-12-01T02:23:47.833Z,70.00
2022-12-01T02:26:51.870Z,72.60
2022-12-01T02:29:50.628Z,66.97
2022-12-01T02:32:30.825Z,71.80
2022-12-01T02:35:03.162Z,73.13
2022-12-01T02:37:35.387Z,80.28
2022-12-01T02:40:11.009Z,80.85
2022-12-01T02:42:50.716Z,82.03
2022-12-01T02:45:27.657Z,76.38
2022-12-01T02:48:01.260Z,77.22
2022-12-01T02:50:31.543Z,84.88
2022-12-01T02:53:01.128Z,82.78
2022-12-01T02:55:28.826Z,79.80
2022-12-01T02:57:56.529Z,72.78
2022-12-01T03:00:24.337Z,82.15
2022-12-01T03:03:18.371Z,82.60
2022-12-01T03:05:54.241Z,82.97
2022-12-01T03:08:28.391Z,79.15
2022-12-01T03:10:58.437Z,79.78
2022-12-01T03:13:39.039Z,86.30
2022-12-01T03:16:12.971Z,88.95
2022-12-01T03:18:48.239Z,84.57
2022-12-01T03:21:25.282Z,81.45
2022-12-01T03:23:57.487Z,88.43
2022-12-01T03:26:28.980Z,88.18
2022-12-01T03:29:01.134Z,96.78
2022-12-01T03:31:33.117Z,93.93
2022-12-01T03:34:07.277Z,88.85
2022-12-01T03:36:38.741Z,97.20
2022-12-01T03:39:11.352Z,101.03
2022-12-01T03:41:44.252Z,105.05
2022-12-01T03:44:18.196Z,101.75
2022-12-01T03:46:51.226Z,112.70
2022-12-01T03:49:23.564Z,102.22
2022-12-01T03:52:03.229Z,94.72
2022-12-01T03:54:46.656Z,103.05
2022-12-01T03:57:19.897Z,96.38
2022-12-01T03:59:49.260Z,99.95
2022-12-01T04:02:18.110Z,100.78
2022-12-01T04:04:47.151Z,100.18
2022-12-01T04:07:14.860Z,95.13
2022-12-01T04:09:45.050Z,104.15
2022-12-01T04:12:33.008Z,98.93
2022-12-01T04:15:03.108Z,101.10
2022-12-01T04:17:31.479Z,90.57
2022-12-01T04:20:01.504Z,95.43
2022-12-01T04:22:29.256Z,93.15
2022-12-01T04:24:57.008Z,99.18
2022-12-01T04:27:24.961Z,92.65
2022-12-01T04:29:52.723Z,97.97
2022-12-01T04:32:20.505Z,102.95
2022-12-01T04:34:48.219Z,107.45
2022-12-01T04:37:17.535Z,101.28
2022-12-01T04:39:45.756Z,96.60
2022-12-01T04:42:13.635Z,90.10
2022-12-01T04:44:41.277Z,100.60
2022-12-01T04:47:09.084Z,94.22
2022-12-01T04:49:37.312Z,92.90
2022-12-01T04:52:05.434Z,77.88
2022-12-01T04:54:34.554Z,93.30
2022-12-01T04:57:02.260Z,81.25
2022-12-01T04:59:29.971Z,77.97
2022-12-01T05:01:57.789Z,87.63
2022-12-01T05:04:25.604Z,90.28
2022-12-01T05:06:55.414Z,93.82
2022-12-01T05:09:23.106Z,89.80
2022-12-01T05:11:52.149Z,87.68
2022-12-01T05:14:19.821Z,95.05
2022-12-01T05:16:47.553Z,87.93
2022-12-01T05:19:32.804Z,86.70
2022-12-01T05:22:00.509Z,89.05
2022-12-01T05:24:28.404Z,83.32
2022-12-01T05:26:57.443Z,98.97
2022-12-01T05:29:25.167Z,87.72
2022-12-01T05:31:52.934Z,85.35
2022-12-01T05:34:20.614Z,86.03
2022-12-01T05:36:48.268Z,83.05
2022-12-01T05:39:16.182Z,80.35
2022-12-01T05:41:43.884Z,87.88
2022-12-01T05:44:12.926Z,85.43
2022-12-01T05:46:40.608Z,84.30
2022-12-01T05:49:08.384Z,78.53
2022-12-01T05:51:37.752Z,82.32
2022-12-01T05:54:05.682Z,83.28
2022-12-01T05:56:33.413Z,86.28
2022-12-01T05:59:01.164Z,83.00
2022-12-01T06:01:30.234Z,81.10
2022-12-01T06:03:58.051Z,82.53
2022-12-01T06:06:25.767Z,75.63
2022-12-01T06:08:53.464Z,85.15
2022-12-01T06:11:21.239Z,79.60
2022-12-01T06:13:48.957Z,76.55
2022-12-01T06:16:16.704Z,81.65
2022-12-01T06:18:45.761Z,71.97
2022-12-01T06:21:13.467Z,68.95
2022-12-01T06:23:41.128Z,75.97
2022-12-01T06:26:08.925Z,81.80
2022-12-01T06:28:36.647Z,77.25
2022-12-01T06:31:07.229Z,74.22
2022-12-01T06:33:35.258Z,70.45
2022-12-01T06:36:06.855Z,72.93
2022-12-01T06:38:36.338Z,71.05
2022-12-01T06:41:05.497Z,72.07
2022-12-01T06:43:36.291Z,72.20
2022-12-01T06:46:04.241Z,73.00
2022-12-01T06:48:32.574Z,85.07
2022-12-01T06:51:03.026Z,78.57
2022-12-01T06:53:32.667Z,76.88
2022-12-01T06:56:01.123Z,82.50
2022-12-01T06:58:29.144Z,76.25
2022-12-01T07:00:57.355Z,78.35
2022-12-01T07:03:27.250Z,82.75
2022-12-01T07:05:58.707Z,73.70
2022-12-01T07:08:26.745Z,70.82
2022-12-01T07:10:59.843Z,77.20
2022-12-01T07:13:32.845Z,72.35
2022-12-01T07:16:01.389Z,75.43
2022-12-01T07:18:29.115Z,74.70
2022-12-01T07:21:00.826Z,65.97
2022-12-01T07:23:28.591Z,73.45
2022-12-01T07:26:01.452Z,79.90
2022-12-01T07:28:29.482Z,66.28
2022-12-01T07:31:05.069Z,70.20
2022-12-01T07:33:33.310Z,69.75
2022-12-01T07:36:01.375Z,60.92
2022-12-01T07:38:29.951Z,70.85
2022-12-01T07:41:04.262Z,67.65
2022-12-01T07:43:32.566Z,71.50
2022-12-01T07:46:08.707Z,66.13
2022-12-01T07:48:37.149Z,68.10
2022-12-01T07:51:05.561Z,60.03
2022-12-01T07:53:33.347Z,72.53
2022-12-01T07:56:05.706Z,67.70
2022-12-01T07:58:37.761Z,77.93
2022-12-01T08:01:09.709Z,68.68
2022-12-01T08:03:37.848Z,68.65
2022-12-01T08:06:07.024Z,66.00
2022-12-01T08:08:36.211Z,70.57
2022-12-01T08:11:06.850Z,75.70
2022-12-01T08:13:34.930Z,64.03
2022-12-01T08:16:06.256Z,71.85
2022-12-01T08:18:35.296Z,70.68
2022-12-01T08:21:03.196Z,61.45
2022-12-01T08:23:30.931Z,65.07
2022-12-01T08:26:01.947Z,67.70
2022-12-01T08:28:29.969Z,67.38
2022-12-01T08:30:57.829Z,58.78
2022-12-01T08:33:27.049Z,67.20
2022-12-01T08:35:54.786Z,61.08
2022-12-01T08:38:22.633Z,60.38
2022-12-01T08:40:50.325Z,59.63
2022-12-01T08:43:34.682Z,65.78
2022-12-01T08:46:06.051Z,59.88
2022-12-01T08:48:35.632Z,58.60
2022-12-01T08:51:05.130Z,63.38
2022-12-01T08:53:33.319Z,53.95
2022-12-01T08:56:02.254Z,55.80
2022-12-01T08:58:30.474Z,55.80
2022-12-01T09:01:05.562Z,51.35
2022-12-01T09:03:33.786Z,58.42
2022-12-01T09:06:07.835Z,60.00
2022-12-01T09:08:36.707Z,55.80
2022-12-01T09:11:07.143Z,50.83
2022-12-01T09:13:35.935Z,52.22
2022-12-01T09:16:05.436Z,56.60
2022-12-01T09:18:33.847Z,53.70
2022-12-01T09:21:02.092Z,50.83
2022-12-01T09:23:31.144Z,56.08
2022-12-01T09:26:01.652Z,51.17
2022-12-01T09:28:29.398Z,50.50
2022-12-01T09:30:57.365Z,56.13
2022-12-01T09:33:25.225Z,51.58
2022-12-01T09:35:53.071Z,52.05
2022-12-01T09:38:20.857Z,50.22
2022-12-01T09:40:50.466Z,50.05
2022-12-01T09:43:21.962Z,45.50
2022-12-01T09:45:53.926Z,54.42
2022-12-01T09:48:28.554Z,53.58
2022-12-01T09:50:56.848Z,55.83
2022-12-01T09:53:28.864Z,52.80
2022-12-01T09:56:05.914Z,50.40
2022-12-01T09:58:37.612Z,49.50
2022-12-01T10:01:05.702Z,54.35
2022-12-01T10:03:37.317Z,56.47
2022-12-01T10:06:26.891Z,51.67
2022-12-01T10:09:04.885Z,53.50
2022-12-01T10:11:37.439Z,49.47
2022-12-01T10:14:07.360Z,47.38
2022-12-01T10:16:44.823Z,58.15
2022-12-01T10:19:20.859Z,45.50
2022-12-01T10:22:01.682Z,48.17
2022-12-01T10:24:45.420Z,51.53
2022-12-01T10:27:26.941Z,49.17
2022-12-01T10:30:02.932Z,52.78
2022-12-01T10:32:39.679Z,52.30
2022-12-01T10:35:09.824Z,57.92
2022-12-01T10:37:40.041Z,50.90
2022-12-01T10:40:14.053Z,53.05
2022-12-01T10:42:45.895Z,51.72
2022-12-01T10:45:17.793Z,50.22
2022-12-01T10:48:16.465Z,49.38
2022-12-01T10:50:45.470Z,56.90
2022-12-01T10:53:29.637Z,50.75
2022-12-01T10:56:05.836Z,58.35
2022-12-01T10:58:44.545Z,49.33
2022-12-01T11:01:19.131Z,49.78
2022-12-01T11:03:52.311Z,51.43
2022-12-01T11:06:23.926Z,54.90
2022-12-01T11:08:55.194Z,50.03
2022-12-01T11:11:27.286Z,54.05
2022-12-01T11:13:58.815Z,54.25
2022-12-01T11:16:42.219Z,52.35
2022-12-01T11:19:23.568Z,56.20
2022-12-01T11:21:56.816Z,53.53
2022-12-01T11:24:33.878Z,52.58
2022-12-01T11:27:02.103Z,51.60
2022-12-01T11:29:38.004Z,56.05
2022-12-01T11:32:18.102Z,56.13
2022-12-01T11:34:51.782Z,57.08
2022-12-01T11:37:22.041Z,52.50
2022-12-01T11:39:53.268Z,52.70
2022-12-01T11:42:26.907Z,54.70
2022-12-01T11:45:01.143Z,51.50
2022-12-01T11:47:29.490Z,53.50
2022-12-01T11:49:59.152Z,59.05
2022-12-01T11:52:32.619Z,52.97
2022-12-01T11:55:20.692Z,57.10
2022-12-01T11:57:51.640Z,54.17
2022-12-01T12:00:23.528Z,57.88
2022-12-01T12:03:09.618Z,52.55
2022-12-01T12:06:11.643Z,53.00
2022-12-01T12:08:58.729Z,49.17
2022-12-01T12:11:39.236Z,47.92
2022-12-01T12:14:23.641Z,48.38
2022-12-01T12:17:11.132Z,53.40
2022-12-01T12:20:12.677Z,48.35
2022-12-01T12:22:55.272Z,48.88
2022-12-01T12:25:31.446Z,53.55
2022-12-01T12:28:20.753Z,55.42
2022-12-01T12:30:57.980Z,46.63
2022-12-01T12:33:45.624Z,54.92
2022-12-01T12:36:26.076Z,51.35
2022-12-01T12:39:04.314Z,50.70
2022-12-01T12:41:37.721Z,54.58
2022-12-01T12:44:20.944Z,45.55
2022-12-01T12:47:01.709Z,47.45
2022-12-01T12:49:44.173Z,53.55
2022-12-01T12:52:17.126Z,50.35
2022-12-01T12:54:50.165Z,45.80
2022-12-01T12:57:28.395Z,48.08
2022-12-01T13:00:04.061Z,40.08
2022-12-01T13:02:36.418Z,48.97
2022-12-01T13:05:13.908Z,48.92
2022-12-01T13:07:48.777Z,51.53
2022-12-01T13:10:25.828Z,51.97
2022-12-01T13:12:59.716Z,49.28
2022-12-01T13:15:36.576Z,49.88
2022-12-01T13:18:13.763Z,47.30
2022-12-01T13:20:43.970Z,47.35
2022-12-01T13:23:16.016Z,48.88
2022-12-01T13:25:45.390Z,48.42
2022-12-01T13:28:19.495Z,47.38
2022-12-01T13:31:00.286Z,44.75
2022-12-01T13:33:28.133Z,47.33
2022-12-01T13:36:29.974Z,46.00
2022-12-01T13:38:58.092Z,45.55
2022-12-01T13:41:29.398Z,48.30
2022-12-01T13:44:04.457Z,51.67
2022-12-01T13:46:51.544Z,46.45
2022-12-01T13:49:39.814Z,46.15
2022-12-01T13:52:36.156Z,49.72
2022-12-01T13:55:27.897Z,49.63
2022-12-01T13:58:24.979Z,46.92
2022-12-01T14:00:53.141Z,51.22
2022-12-01T14:03:40.131Z,48.05
2022-12-01T14:06:13.867Z,53.30
2022-12-01T14:08:49.024Z,48.83
2022-12-01T14:11:23.525Z,49.55
2022-12-01T14:13:56.362Z,56.38
2022-12-01T14:16:48.160Z,53.22
2022-12-01T14:19:31.232Z,53.72
2022-12-01T14:22:00.168Z,48.63
2022-12-01T14:24:35.665Z,48.60
2022-12-01T14:29:35.476Z,52.50
2022-12-01T14:32:24.130Z,48.05
2022-12-01T14:35:02.140Z,52.55
2022-12-01T14:37:51.172Z,48.67
2022-12-01T14:40:26.037Z,56.63
2022-12-01T14:43:15.419Z,47.85
2022-12-01T14:45:54.075Z,50.10
2022-12-01T14:48:27.719Z,53.33
2022-12-01T14:51:08.528Z,51.35
2022-12-01T14:53:41.874Z,46.28
2022-12-01T14:56:15.649Z,52.38
2022-12-01T14:58:56.074Z,56.42
2022-12-01T15:01:25.118Z,54.95
2022-12-01T15:04:02.945Z,46.88
2022-12-01T15:06:33.551Z,53.05
2022-12-01T15:09:32.820Z,48.75
2022-12-01T15:12:02.553Z,51.10
2022-12-01T15:14:33.066Z,53.30
2022-12-01T15:17:02.715Z,54.40
2022-12-01T15:19:33.388Z,53.10
2022-12-01T15:22:08.548Z,48.47
2022-12-01T15:24:36.444Z,51.63
2022-12-01T15:27:06.169Z,50.05
2022-12-01T15:29:38.555Z,51.92
2022-12-01T15:32:08.576Z,44.80
2022-12-01T15:34:39.198Z,49.33
2022-12-01T15:37:12.102Z,48.67
2022-12-01T15:39:44.995Z,49.95
2022-12-01T15:42:24.667Z,48.15
2022-12-01T15:45:00.527Z,51.33
2022-12-01T15:47:35.708Z,49.33
2022-12-01T15:50:04.429Z,48.67
2022-12-01T15:52:32.770Z,50.45
2022-12-01T15:55:05.332Z,47.85
2022-12-01T15:57:35.281Z,46.53
2022-12-01T16:00:03.494Z,51.83
2022-12-01T16:02:33.629Z,48.25
2022-12-01T16:05:08.302Z,51.75
2022-12-01T16:08:11.630Z,47.87
2022-12-01T16:10:31.361Z,50.85
2022-12-01T16:13:39.501Z,44.50
2022-12-01T16:16:31.288Z,51.47
2022-12-01T16:19:03.410Z,47.42
2022-12-01T16:21:34.887Z,50.45
2022-12-01T16:24:04.416Z,47.70
2022-12-01T16:26:34.218Z,49.22
2022-12-01T16:29:03.347Z,45.00
2022-12-01T16:31:32.744Z,41.50
2022-12-01T16:34:13.931Z,51.67
2022-12-01T16:39:14.741Z,51.42
2022-12-01T16:41:44.620Z,47.45
2022-12-01T16:44:28.569Z,48.58
2022-12-01T16:46:57.404Z,53.50
2022-12-01T16:49:25.330Z,45.75
2022-12-01T16:51:57.279Z,51.58
2022-12-01T16:54:25.802Z,48.75
2022-12-01T16:56:53.547Z,52.20
2022-12-01T16:59:22.590Z,47.17
2022-12-01T17:01:52.686Z,54.13
2022-12-01T17:04:20.417Z,52.30
2022-12-01T17:06:48.124Z,47.38
2022-12-01T17:09:15.835Z,48.03
2022-12-01T17:11:43.620Z,46.13
2022-12-01T17:14:11.328Z,51.15
2022-12-01T17:16:40.368Z,53.65
2022-12-01T17:19:08.101Z,51.05
2022-12-01T17:21:36.074Z,55.00
2022-12-01T17:24:17.573Z,51.15
2022-12-01T17:26:49.324Z,43.83
2022-12-01T17:29:23.928Z,55.42
2022-12-01T17:31:53.225Z,48.28
2022-12-01T17:34:21.089Z,51.65
2022-12-01T17:36:48.813Z,54.65
2022-12-01T17:39:19.385Z,49.25
2022-12-01T17:41:47.200Z,49.13
2022-12-01T17:44:14.901Z,55.10
2022-12-01T17:46:42.710Z,51.08
2022-12-01T17:49:13.230Z,51.85
2022-12-01T17:51:41.594Z,49.00
2022-12-01T17:54:12.743Z,47.55
2022-12-01T17:56:42.965Z,50.30
2022-12-01T17:59:13.516Z,47.80
2022-12-01T18:01:43.247Z,46.40
2022-12-01T18:04:12.583Z,49.40
2022-12-01T18:06:40.431Z,49.63
2022-12-01T18:09:08.126Z,50.78
2022-12-01T18:11:35.796Z,54.17
2022-12-01T18:14:03.496Z,47.08
2022-12-01T18:16:32.570Z,51.03
2022-12-01T18:19:01.528Z,51.08
2022-12-01T18:21:30.687Z,42.75
2022-12-01T18:24:03.349Z,49.30
2022-12-01T18:26:32.302Z,49.22
2022-12-01T18:29:01.813Z,49.75
2022-12-01T18:31:30.684Z,50.38
2022-12-01T18:34:02.567Z,49.72
2022-12-01T18:36:33.206Z,50.25
2022-12-01T18:39:02.310Z,55.92
2022-12-01T18:41:30.540Z,49.58
2022-12-01T18:43:58.517Z,54.60
2022-12-01T18:46:26.292Z,56.38
2022-12-01T18:49:00.414Z,55.47
2022-12-01T18:51:29.222Z,45.80
2022-12-01T18:54:00.113Z,48.63
2022-12-01T18:56:28.733Z,49.80
2022-12-01T18:58:56.887Z,50.90
2022-12-01T19:01:26.965Z,46.92
2022-12-01T19:03:55.819Z,44.00
2022-12-01T19:06:24.467Z,48.92
2022-12-01T19:08:52.350Z,51.45
2022-12-01T19:11:21.890Z,46.33
2022-12-01T19:13:49.623Z,49.60
2022-12-01T19:16:19.730Z,46.83
2022-12-01T19:18:47.753Z,49.08
2022-12-01T19:21:17.571Z,46.85
2022-12-01T19:23:46.440Z,44.38
2022-12-01T19:26:16.329Z,46.83
2022-12-01T19:28:46.354Z,46.47
2022-12-01T19:31:15.725Z,46.83
2022-12-01T19:33:46.583Z,52.70
2022-12-01T19:36:16.767Z,49.72
2022-12-01T19:38:45.099Z,47.67
2022-12-01T19:41:13.869Z,45.13
2022-12-01T19:43:42.865Z,47.35
2022-12-01T19:46:13.555Z,47.75
2022-12-01T19:48:45.061Z,45.00
2022-12-01T19:51:19.791Z,54.20
2022-12-01T19:53:47.948Z,47.60
2022-12-01T19:56:15.790Z,49.40
2022-12-01T19:58:43.698Z,56.28
2022-12-01T20:01:14.914Z,51.60
2022-12-01T20:03:43.311Z,49.90
2022-12-01T20:06:13.615Z,49.70
2022-12-01T20:08:41.931Z,47.17
2022-12-01T20:11:10.238Z,53.65
2022-12-01T20:13:40.049Z,53.30
2022-12-01T20:16:10.166Z,54.28
2022-12-01T20:18:39.835Z,46.50
2022-12-01T20:21:09.315Z,45.63
2022-12-01T20:23:37.791Z,49.50
2022-12-01T20:26:08.248Z,46.13
2022-12-01T20:28:37.284Z,46.17
2022-12-01T20:31:09.544Z,49.58
2022-12-01T20:33:37.263Z,43.78
2022-12-01T20:36:06.931Z,51.08
2022-12-01T20:38:35.056Z,49.42
2022-12-01T20:41:02.757Z,50.85
2022-12-01T20:43:30.484Z,45.60
2022-12-01T20:45:58.248Z,48.47
2022-12-01T20:48:26.497Z,55.42
2022-12-01T20:50:54.391Z,54.33
2022-12-01T20:53:23.540Z,58.03
2022-12-01T20:55:51.270Z,50.03
2022-12-01T20:58:19.016Z,47.22
2022-12-01T21:00:46.768Z,39.38
2022-12-01T21:03:15.410Z,42.67
2022-12-01T21:05:44.554Z,45.97
2022-12-01T21:08:14.559Z,47.53
2022-12-01T21:10:46.857Z,52.60
2022-12-01T21:13:37.095Z,57.30
2022-12-01T21:16:12.367Z,55.63
2022-12-01T21:18:47.210Z,45.13
2022-12-01T21:21:23.165Z,48.75
2022-12-01T21:24:02.160Z,51.70
2022-12-01T21:26:31.334Z,50.25
2022-12-01T21:29:00.927Z,48.10
2022-12-01T21:31:29.113Z,47.63
2022-12-01T21:33:57.350Z,49.80
2022-12-01T21:36:29.941Z,48.83
2022-12-01T21:39:15.390Z,44.65
2022-12-01T21:41:44.480Z,49.70
2022-12-01T21:44:16.080Z,45.13
2022-12-01T21:46:44.215Z,52.10
2022-12-01T21:49:14.611Z,52.90
2022-12-01T21:51:42.273Z,53.67
2022-12-01T21:54:14.863Z,47.22
2022-12-01T21:56:44.141Z,56.92
2022-12-01T21:59:19.948Z,48.10
2022-12-01T22:01:48.979Z,48.40
2022-12-01T22:04:20.406Z,50.63
2022-12-01T22:06:50.057Z,55.30
2022-12-01T22:09:24.255Z,49.83
2022-12-01T22:11:55.643Z,46.90
2022-12-01T22:14:25.214Z,51.30
2022-12-01T22:16:57.218Z,49.95
2022-12-01T22:19:29.378Z,50.15
2022-12-01T22:22:02.645Z,54.10
2022-12-01T22:24:38.832Z,58.50
2022-12-01T22:27:33.181Z,51.47
2022-12-01T22:30:03.381Z,48.20
2022-12-01T22:32:45.080Z,48.50
2022-12-01T22:35:25.632Z,53.35
2022-12-01T22:37:55.190Z,51.75
2022-12-01T22:40:38.497Z,56.15
2022-12-01T22:43:30.201Z,57.13
2022-12-01T22:46:18.179Z,54.13
2022-12-01T22:48:48.143Z,54.67
2022-12-01T22:51:40.634Z,55.17
2022-12-01T22:54:27.025Z,49.05
2022-12-01T23:03:33.338Z,50.33
2022-12-01T23:06:01.002Z,55.85
2022-12-01T23:08:28.695Z,57.30
2022-12-01T23:10:56.391Z,54.30
2022-12-01T23:13:25.656Z,51.60
2022-12-01T23:15:54.533Z,55.00
2022-12-01T23:18:25.341Z,57.55
2022-12-01T23:20:56.237Z,52.90
2022-12-01T23:23:28.292Z,50.42
2022-12-01T23:25:56.462Z,50.78
2022-12-01T23:28:25.140Z,51.88
2022-12-01T23:30:55.782Z,51.65
2022-12-01T23:33:25.357Z,49.55
2022-12-01T23:35:57.153Z,50.22
2022-12-01T23:38:32.361Z,50.35
2022-12-01T23:41:02.108Z,51.85
2022-12-01T23:43:33.019Z,50.78
2022-12-01T23:46:05.083Z,51.00
2022-12-01T23:48:35.679Z,51.92
2022-12-01T23:51:05.941Z,51.47
2022-12-01T23:53:35.532Z,55.70
2022-12-01T23:56:10.177Z,56.80
2022-12-01T23:58:37.891Z,54.53
